sensor_id;sensor_type;location;lat;lon;timestamp;temperature;humidity
8489;DHT22;4281;45.772;12.852;2022-09-01T00:00:43;23.20;99.90
8489;DHT22;4281;45.772;12.852;2022-09-01T00:03:16;23.20;99.90
8489;DHT22;4281;45.772;12.852;2022-09-01T00:05:45;23.00;99.90
8489;DHT22;4281;45.772;12.852;2022-09-01T00:08:16;23.00;99.90
8489;DHT22;4281;45.772;12.852;2022-09-01T00:10:44;23.00;99.90
8489;DHT22;4281;45.772;12.852;2022-09-01T00:13:13;23.00;99.90
8489;DHT22;4281;45.772;12.852;2022-09-01T00:15:43;23.10;99.90
8489;DHT22;4281;45.772;12.852;2022-09-01T00:18:12;23.10;99.90
8489;DHT22;4281;45.772;12.852;2022-09-01T00:20:41;23.20;99.90
8489;DHT22;4281;45.772;12.852;2022-09-01T00:23:10;23.20;99.90
8489;DHT22;4281;45.772;12.852;2022-09-01T00:25:38;23.20;99.90
8489;DHT22;4281;45.772;12.852;2022-09-01T00:28:07;23.20;99.90
8489;DHT22;4281;45.772;12.852;2022-09-01T00:33:07;23.20;99.90
8489;DHT22;4281;45.772;12.852;2022-09-01T00:35:35;23.30;99.90
8489;DHT22;4281;45.772;12.852;2022-09-01T00:38:04;23.30;99.90
8489;DHT22;4281;45.772;12.852;2022-09-01T00:40:33;23.20;99.90
8489;DHT22;4281;45.772;12.852;2022-09-01T00:43:11;23.20;99.90
8489;DHT22;4281;45.772;12.852;2022-09-01T00:45:39;23.30;99.90
8489;DHT22;4281;45.772;12.852;2022-09-01T00:48:10;23.20;99.90
8489;DHT22;4281;45.772;12.852;2022-09-01T00:50:41;23.30;99.90
8489;DHT22;4281;45.772;12.852;2022-09-01T00:53:15;23.20;99.90
8489;DHT22;4281;45.772;12.852;2022-09-01T00:55:43;23.20;99.90
8489;DHT22;4281;45.772;12.852;2022-09-01T00:58:12;23.10;99.90
8489;DHT22;4281;45.772;12.852;2022-09-01T01:00:48;23.10;99.90
8489;DHT22;4281;45.772;12.852;2022-09-01T01:03:19;23.00;99.90
8489;DHT22;4281;45.772;12.852;2022-09-01T01:05:50;23.10;99.90
8489;DHT22;4281;45.772;12.852;2022-09-01T01:08:22;23.20;99.90
8489;DHT22;4281;45.772;12.852;2022-09-01T01:11:00;23.10;99.90
8489;DHT22;4281;45.772;12.852;2022-09-01T01:13:29;23.20;99.90
8489;DHT22;4281;45.772;12.852;2022-09-01T01:16:03;23.20;99.90
8489;DHT22;4281;45.772;12.852;2022-09-01T01:18:39;23.00;99.90
8489;DHT22;4281;45.772;12.852;2022-09-01T01:21:14;23.10;99.90
8489;DHT22;4281;45.772;12.852;2022-09-01T01:24:07;23.30;99.90
8489;DHT22;4281;45.772;12.852;2022-09-01T01:26:38;23.20;99.90
8489;DHT22;4281;45.772;12.852;2022-09-01T01:29:06;23.10;99.90
8489;DHT22;4281;45.772;12.852;2022-09-01T01:31:36;23.00;99.90
8489;DHT22;4281;45.772;12.852;2022-09-01T01:34:04;22.90;99.90
8489;DHT22;4281;45.772;12.852;2022-09-01T01:36:36;22.80;99.90
8489;DHT22;4281;45.772;12.852;2022-09-01T01:39:08;22.70;99.90
8489;DHT22;4281;45.772;12.852;2022-09-01T01:41:39;22.70;99.90
8489;DHT22;4281;45.772;12.852;2022-09-01T01:44:12;22.70;99.90
8489;DHT22;4281;45.772;12.852;2022-09-01T01:46:43;22.70;99.90
8489;DHT22;4281;45.772;12.852;2022-09-01T01:49:13;22.60;99.90
8489;DHT22;4281;45.772;12.852;2022-09-01T01:51:46;22.60;99.90
8489;DHT22;4281;45.772;12.852;2022-09-01T01:54:15;22.70;99.90
8489;DHT22;4281;45.772;12.852;2022-09-01T01:56:47;22.60;99.90
8489;DHT22;4281;45.772;12.852;2022-09-01T01:59:16;22.50;99.90
8489;DHT22;4281;45.772;12.852;2022-09-01T02:01:45;22.70;99.90
8489;DHT22;4281;45.772;12.852;2022-09-01T02:04:18;22.60;99.90
8489;DHT22;4281;45.772;12.852;2022-09-01T02:06:48;22.60;99.90
8489;DHT22;4281;45.772;12.852;2022-09-01T02:09:20;22.50;99.90
8489;DHT22;4281;45.772;12.852;2022-09-01T02:11:50;22.40;99.90
8489;DHT22;4281;45.772;12.852;2022-09-01T02:14:23;22.30;99.90
8489;DHT22;4281;45.772;12.852;2022-09-01T02:16:52;22.30;99.90
8489;DHT22;4281;45.772;12.852;2022-09-01T02:19:22;22.30;99.90
8489;DHT22;4281;45.772;12.852;2022-09-01T02:21:50;22.40;99.90
8489;DHT22;4281;45.772;12.852;2022-09-01T02:24:22;22.40;99.90
8489;DHT22;4281;45.772;12.852;2022-09-01T02:26:53;22.40;99.90
8489;DHT22;4281;45.772;12.852;2022-09-01T02:29:22;22.50;99.90
8489;DHT22;4281;45.772;12.852;2022-09-01T02:31:55;22.40;99.90
8489;DHT22;4281;45.772;12.852;2022-09-01T02:34:25;22.30;99.90
8489;DHT22;4281;45.772;12.852;2022-09-01T02:36:56;22.30;99.90
8489;DHT22;4281;45.772;12.852;2022-09-01T02:39:26;22.20;99.90
8489;DHT22;4281;45.772;12.852;2022-09-01T02:41:56;22.10;99.90
8489;DHT22;4281;45.772;12.852;2022-09-01T02:44:27;22.20;99.90
8489;DHT22;4281;45.772;12.852;2022-09-01T02:46:57;22.10;99.90
8489;DHT22;4281;45.772;12.852;2022-09-01T02:49:27;22.00;99.90
8489;DHT22;4281;45.772;12.852;2022-09-01T02:51:57;22.00;99.90
8489;DHT22;4281;45.772;12.852;2022-09-01T02:54:28;22.00;99.90
8489;DHT22;4281;45.772;12.852;2022-09-01T02:56:59;22.00;99.90
8489;DHT22;4281;45.772;12.852;2022-09-01T02:59:28;22.00;99.90
8489;DHT22;4281;45.772;12.852;2022-09-01T03:01:56;22.00;99.90
8489;DHT22;4281;45.772;12.852;2022-09-01T03:04:25;21.90;99.90
8489;DHT22;4281;45.772;12.852;2022-09-01T03:06:55;22.00;99.90
8489;DHT22;4281;45.772;12.852;2022-09-01T03:09:25;22.10;99.90
8489;DHT22;4281;45.772;12.852;2022-09-01T03:11:54;22.10;99.90
8489;DHT22;4281;45.772;12.852;2022-09-01T03:14:24;22.10;99.90
8489;DHT22;4281;45.772;12.852;2022-09-01T03:16:52;21.90;99.90
8489;DHT22;4281;45.772;12.852;2022-09-01T03:19:21;22.10;99.90
8489;DHT22;4281;45.772;12.852;2022-09-01T03:21:49;22.10;99.90
8489;DHT22;4281;45.772;12.852;2022-09-01T03:24:18;22.00;99.90
8489;DHT22;4281;45.772;12.852;2022-09-01T03:26:49;22.00;99.90
8489;DHT22;4281;45.772;12.852;2022-09-01T03:29:18;21.90;99.90
8489;DHT22;4281;45.772;12.852;2022-09-01T03:31:48;22.00;99.90
8489;DHT22;4281;45.772;12.852;2022-09-01T03:34:17;22.20;99.90
8489;DHT22;4281;45.772;12.852;2022-09-01T03:36:49;22.10;99.90
8489;DHT22;4281;45.772;12.852;2022-09-01T03:39:18;22.00;99.90
8489;DHT22;4281;45.772;12.852;2022-09-01T03:41:47;22.20;99.90
8489;DHT22;4281;45.772;12.852;2022-09-01T03:44:15;22.20;99.90
8489;DHT22;4281;45.772;12.852;2022-09-01T03:46:44;22.20;99.90
8489;DHT22;4281;45.772;12.852;2022-09-01T03:49:14;22.10;99.90
8489;DHT22;4281;45.772;12.852;2022-09-01T03:51:49;22.20;99.90
8489;DHT22;4281;45.772;12.852;2022-09-01T03:54:20;22.30;99.90
8489;DHT22;4281;45.772;12.852;2022-09-01T03:56:50;22.20;99.90
8489;DHT22;4281;45.772;12.852;2022-09-01T03:59:21;22.00;99.90
8489;DHT22;4281;45.772;12.852;2022-09-01T04:01:50;21.90;99.90
8489;DHT22;4281;45.772;12.852;2022-09-01T04:04:20;21.80;99.90
8489;DHT22;4281;45.772;12.852;2022-09-01T04:06:49;21.80;99.90
8489;DHT22;4281;45.772;12.852;2022-09-01T04:09:17;21.80;99.90
8489;DHT22;4281;45.772;12.852;2022-09-01T04:11:47;21.70;99.90
8489;DHT22;4281;45.772;12.852;2022-09-01T04:14:19;21.80;99.90
8489;DHT22;4281;45.772;12.852;2022-09-01T04:16:47;21.70;99.90
8489;DHT22;4281;45.772;12.852;2022-09-01T04:19:35;21.80;99.90
8489;DHT22;4281;45.772;12.852;2022-09-01T04:22:05;22.00;99.90
8489;DHT22;4281;45.772;12.852;2022-09-01T04:24:39;22.10;99.90
8489;DHT22;4281;45.772;12.852;2022-09-01T04:27:13;22.10;99.90
8489;DHT22;4281;45.772;12.852;2022-09-01T04:29:44;22.10;99.90
8489;DHT22;4281;45.772;12.852;2022-09-01T04:32:14;22.20;99.90
8489;DHT22;4281;45.772;12.852;2022-09-01T04:34:44;22.20;99.90
8489;DHT22;4281;45.772;12.852;2022-09-01T04:37:14;22.20;99.90
8489;DHT22;4281;45.772;12.852;2022-09-01T04:39:48;21.90;99.90
8489;DHT22;4281;45.772;12.852;2022-09-01T04:42:23;21.80;99.90
8489;DHT22;4281;45.772;12.852;2022-09-01T04:44:52;21.90;99.90
8489;DHT22;4281;45.772;12.852;2022-09-01T04:47:24;21.90;99.90
8489;DHT22;4281;45.772;12.852;2022-09-01T04:50:05;21.80;99.90
8489;DHT22;4281;45.772;12.852;2022-09-01T04:52:41;21.90;99.90
8489;DHT22;4281;45.772;12.852;2022-09-01T04:55:11;21.70;99.90
8489;DHT22;4281;45.772;12.852;2022-09-01T04:57:45;21.60;99.90
8489;DHT22;4281;45.772;12.852;2022-09-01T05:00:18;21.60;99.90
8489;DHT22;4281;45.772;12.852;2022-09-01T05:02:51;21.60;99.90
8489;DHT22;4281;45.772;12.852;2022-09-01T05:07:57;21.80;99.90
8489;DHT22;4281;45.772;12.852;2022-09-01T05:10:25;21.90;99.90
8489;DHT22;4281;45.772;12.852;2022-09-01T05:12:56;21.80;99.90
8489;DHT22;4281;45.772;12.852;2022-09-01T05:15:24;22.00;99.90
8489;DHT22;4281;45.772;12.852;2022-09-01T05:17:53;22.00;99.90
8489;DHT22;4281;45.772;12.852;2022-09-01T05:20:21;21.90;99.90
8489;DHT22;4281;45.772;12.852;2022-09-01T05:22:50;22.00;99.90
8489;DHT22;4281;45.772;12.852;2022-09-01T05:25:22;22.00;99.90
8489;DHT22;4281;45.772;12.852;2022-09-01T05:27:51;22.10;99.90
8489;DHT22;4281;45.772;12.852;2022-09-01T05:30:22;22.10;99.90
8489;DHT22;4281;45.772;12.852;2022-09-01T05:32:54;22.10;99.90
8489;DHT22;4281;45.772;12.852;2022-09-01T05:35:23;22.20;99.90
8489;DHT22;4281;45.772;12.852;2022-09-01T05:37:58;22.20;99.90
8489;DHT22;4281;45.772;12.852;2022-09-01T05:40:28;22.30;99.90
8489;DHT22;4281;45.772;12.852;2022-09-01T05:42:58;22.30;99.90
8489;DHT22;4281;45.772;12.852;2022-09-01T05:45:27;22.30;99.90
8489;DHT22;4281;45.772;12.852;2022-09-01T05:48:15;22.10;99.90
8489;DHT22;4281;45.772;12.852;2022-09-01T05:50:50;22.10;99.90
8489;DHT22;4281;45.772;12.852;2022-09-01T05:53:22;22.30;99.90
8489;DHT22;4281;45.772;12.852;2022-09-01T05:55:54;22.20;99.90
8489;DHT22;4281;45.772;12.852;2022-09-01T05:58:26;22.30;99.90
8489;DHT22;4281;45.772;12.852;2022-09-01T06:01:17;22.20;99.90
8489;DHT22;4281;45.772;12.852;2022-09-01T06:03:48;22.20;99.90
8489;DHT22;4281;45.772;12.852;2022-09-01T06:06:21;22.10;99.90
8489;DHT22;4281;45.772;12.852;2022-09-01T06:08:51;22.20;99.90
8489;DHT22;4281;45.772;12.852;2022-09-01T06:11:26;22.20;99.90
8489;DHT22;4281;45.772;12.852;2022-09-01T06:13:59;22.30;99.90
8489;DHT22;4281;45.772;12.852;2022-09-01T06:16:29;22.20;99.90
8489;DHT22;4281;45.772;12.852;2022-09-01T06:18:58;22.20;99.90
8489;DHT22;4281;45.772;12.852;2022-09-01T06:21:26;22.30;99.90
8489;DHT22;4281;45.772;12.852;2022-09-01T06:23:56;22.30;99.90
8489;DHT22;4281;45.772;12.852;2022-09-01T06:26:29;22.50;99.90
8489;DHT22;4281;45.772;12.852;2022-09-01T06:29:00;22.50;99.90
8489;DHT22;4281;45.772;12.852;2022-09-01T06:31:33;22.50;99.90
8489;DHT22;4281;45.772;12.852;2022-09-01T06:34:07;22.70;99.90
8489;DHT22;4281;45.772;12.852;2022-09-01T06:36:36;22.80;99.90
8489;DHT22;4281;45.772;12.852;2022-09-01T06:39:07;22.80;99.90
8489;DHT22;4281;45.772;12.852;2022-09-01T06:41:41;22.60;99.90
8489;DHT22;4281;45.772;12.852;2022-09-01T06:44:13;22.80;99.90
8489;DHT22;4281;45.772;12.852;2022-09-01T06:46:48;22.80;99.90
8489;DHT22;4281;45.772;12.852;2022-09-01T06:49:18;22.80;99.90
8489;DHT22;4281;45.772;12.852;2022-09-01T06:51:47;22.80;99.90
8489;DHT22;4281;45.772;12.852;2022-09-01T06:54:18;22.90;99.90
8489;DHT22;4281;45.772;12.852;2022-09-01T06:56:49;23.00;99.90
8489;DHT22;4281;45.772;12.852;2022-09-01T06:59:19;23.10;99.90
8489;DHT22;4281;45.772;12.852;2022-09-01T07:01:48;23.40;99.90
8489;DHT22;4281;45.772;12.852;2022-09-01T07:04:18;23.60;99.90
8489;DHT22;4281;45.772;12.852;2022-09-01T07:06:47;23.70;99.90
8489;DHT22;4281;45.772;12.852;2022-09-01T07:09:27;23.60;99.90
8489;DHT22;4281;45.772;12.852;2022-09-01T07:12:17;23.60;99.90
8489;DHT22;4281;45.772;12.852;2022-09-01T07:14:54;23.50;99.90
8489;DHT22;4281;45.772;12.852;2022-09-01T07:17:46;23.40;99.90
8489;DHT22;4281;45.772;12.852;2022-09-01T07:20:16;23.50;99.90
8489;DHT22;4281;45.772;12.852;2022-09-01T07:23:07;23.60;99.90
8489;DHT22;4281;45.772;12.852;2022-09-01T07:25:38;23.80;99.90
8489;DHT22;4281;45.772;12.852;2022-09-01T07:28:29;23.80;99.90
8489;DHT22;4281;45.772;12.852;2022-09-01T07:31:06;23.70;99.90
8489;DHT22;4281;45.772;12.852;2022-09-01T07:33:57;23.60;99.90
8489;DHT22;4281;45.772;12.852;2022-09-01T07:36:47;23.40;99.90
8489;DHT22;4281;45.772;12.852;2022-09-01T07:39:36;23.50;99.90
8489;DHT22;4281;45.772;12.852;2022-09-01T07:42:17;23.40;99.90
8489;DHT22;4281;45.772;12.852;2022-09-01T07:45:08;23.20;99.90
8489;DHT22;4281;45.772;12.852;2022-09-01T07:47:54;23.30;99.90
8489;DHT22;4281;45.772;12.852;2022-09-01T07:50:24;23.40;99.90
8489;DHT22;4281;45.772;12.852;2022-09-01T07:53:14;23.60;99.90
8489;DHT22;4281;45.772;12.852;2022-09-01T07:55:45;23.80;99.90
8489;DHT22;4281;45.772;12.852;2022-09-01T07:58:16;24.00;99.90
8489;DHT22;4281;45.772;12.852;2022-09-01T08:00:47;24.20;99.90
8489;DHT22;4281;45.772;12.852;2022-09-01T08:03:17;24.10;99.90
8489;DHT22;4281;45.772;12.852;2022-09-01T08:05:46;24.20;99.90
8489;DHT22;4281;45.772;12.852;2022-09-01T08:08:17;24.40;99.90
8489;DHT22;4281;45.772;12.852;2022-09-01T08:10:49;24.50;99.90
8489;DHT22;4281;45.772;12.852;2022-09-01T08:13:18;24.60;99.90
8489;DHT22;4281;45.772;12.852;2022-09-01T08:15:49;24.50;99.90
8489;DHT22;4281;45.772;12.852;2022-09-01T08:18:37;24.30;99.90
8489;DHT22;4281;45.772;12.852;2022-09-01T08:21:20;24.30;99.90
8489;DHT22;4281;45.772;12.852;2022-09-01T08:23:50;24.20;99.90
8489;DHT22;4281;45.772;12.852;2022-09-01T08:26:21;24.40;99.90
8489;DHT22;4281;45.772;12.852;2022-09-01T08:28:50;24.60;99.90
8489;DHT22;4281;45.772;12.852;2022-09-01T08:31:23;24.50;99.90
8489;DHT22;4281;45.772;12.852;2022-09-01T08:33:56;24.50;99.90
8489;DHT22;4281;45.772;12.852;2022-09-01T08:36:26;24.40;99.90
8489;DHT22;4281;45.772;12.852;2022-09-01T08:38:54;24.30;99.90
8489;DHT22;4281;45.772;12.852;2022-09-01T08:41:41;24.40;99.90
8489;DHT22;4281;45.772;12.852;2022-09-01T08:44:19;24.30;99.90
8489;DHT22;4281;45.772;12.852;2022-09-01T08:46:57;24.30;99.90
8489;DHT22;4281;45.772;12.852;2022-09-01T08:49:26;24.30;99.90
8489;DHT22;4281;45.772;12.852;2022-09-01T08:51:59;24.10;99.90
8489;DHT22;4281;45.772;12.852;2022-09-01T08:54:36;24.20;99.90
8489;DHT22;4281;45.772;12.852;2022-09-01T08:57:08;24.30;99.90
8489;DHT22;4281;45.772;12.852;2022-09-01T08:59:38;24.50;99.90
8489;DHT22;4281;45.772;12.852;2022-09-01T09:02:25;24.50;99.90
8489;DHT22;4281;45.772;12.852;2022-09-01T09:05:01;24.50;99.90
8489;DHT22;4281;45.772;12.852;2022-09-01T09:07:57;24.50;99.90
8489;DHT22;4281;45.772;12.852;2022-09-01T09:10:38;24.50;99.90
8489;DHT22;4281;45.772;12.852;2022-09-01T09:13:19;24.40;99.90
8489;DHT22;4281;45.772;12.852;2022-09-01T09:15:52;24.50;99.90
8489;DHT22;4281;45.772;12.852;2022-09-01T09:18:41;24.50;99.90
8489;DHT22;4281;45.772;12.852;2022-09-01T09:21:32;24.60;99.90
8489;DHT22;4281;45.772;12.852;2022-09-01T09:24:08;24.80;99.90
8489;DHT22;4281;45.772;12.852;2022-09-01T09:26:37;24.80;99.90
8489;DHT22;4281;45.772;12.852;2022-09-01T09:29:09;24.80;99.90
8489;DHT22;4281;45.772;12.852;2022-09-01T09:31:39;24.80;99.90
8489;DHT22;4281;45.772;12.852;2022-09-01T09:34:32;24.80;99.90
8489;DHT22;4281;45.772;12.852;2022-09-01T09:37:22;25.10;99.90
8489;DHT22;4281;45.772;12.852;2022-09-01T09:40:04;25.40;99.90
8489;DHT22;4281;45.772;12.852;2022-09-01T09:42:36;25.50;99.90
8489;DHT22;4281;45.772;12.852;2022-09-01T09:45:20;25.60;99.90
8489;DHT22;4281;45.772;12.852;2022-09-01T09:47:50;25.70;99.90
8489;DHT22;4281;45.772;12.852;2022-09-01T09:50:23;25.70;99.90
8489;DHT22;4281;45.772;12.852;2022-09-01T09:53:08;25.80;99.90
8489;DHT22;4281;45.772;12.852;2022-09-01T09:55:51;25.90;99.90
8489;DHT22;4281;45.772;12.852;2022-09-01T09:58:24;25.90;99.90
8489;DHT22;4281;45.772;12.852;2022-09-01T10:01:02;25.80;99.90
8489;DHT22;4281;45.772;12.852;2022-09-01T10:03:39;25.70;99.90
8489;DHT22;4281;45.772;12.852;2022-09-01T10:06:29;25.60;99.90
8489;DHT22;4281;45.772;12.852;2022-09-01T10:08:59;25.50;99.90
8489;DHT22;4281;45.772;12.852;2022-09-01T10:11:32;25.60;99.90
8489;DHT22;4281;45.772;12.852;2022-09-01T10:14:12;25.70;99.90
8489;DHT22;4281;45.772;12.852;2022-09-01T10:17:05;25.80;99.90
8489;DHT22;4281;45.772;12.852;2022-09-01T10:19:36;25.90;99.90
8489;DHT22;4281;45.772;12.852;2022-09-01T10:22:09;25.90;99.90
8489;DHT22;4281;45.772;12.852;2022-09-01T10:24:41;25.80;99.90
8489;DHT22;4281;45.772;12.852;2022-09-01T10:27:18;25.90;99.90
8489;DHT22;4281;45.772;12.852;2022-09-01T10:29:51;26.20;99.90
8489;DHT22;4281;45.772;12.852;2022-09-01T10:32:45;26.30;99.90
8489;DHT22;4281;45.772;12.852;2022-09-01T10:35:25;26.30;99.90
8489;DHT22;4281;45.772;12.852;2022-09-01T10:37:56;26.20;99.90
8489;DHT22;4281;45.772;12.852;2022-09-01T10:40:37;26.00;99.90
8489;DHT22;4281;45.772;12.852;2022-09-01T10:43:28;26.00;99.90
8489;DHT22;4281;45.772;12.852;2022-09-01T10:52:59;25.70;99.90
8489;DHT22;4281;45.772;12.852;2022-09-01T10:55:34;25.80;99.90
8489;DHT22;4281;45.772;12.852;2022-09-01T10:58:22;25.90;99.90
8489;DHT22;4281;45.772;12.852;2022-09-01T11:01:11;26.10;99.90
8489;DHT22;4281;45.772;12.852;2022-09-01T11:04:01;26.20;99.90
8489;DHT22;4281;45.772;12.852;2022-09-01T11:06:58;26.20;99.90
8489;DHT22;4281;45.772;12.852;2022-09-01T11:13:17;26.10;99.90
8489;DHT22;4281;45.772;12.852;2022-09-01T11:15:50;26.00;99.90
8489;DHT22;4281;45.772;12.852;2022-09-01T11:18:24;26.00;99.90
8489;DHT22;4281;45.772;12.852;2022-09-01T11:20:54;25.90;99.90
8489;DHT22;4281;45.772;12.852;2022-09-01T11:23:25;26.00;99.90
8489;DHT22;4281;45.772;12.852;2022-09-01T11:25:59;26.00;99.90
8489;DHT22;4281;45.772;12.852;2022-09-01T11:28:47;26.10;99.90
8489;DHT22;4281;45.772;12.852;2022-09-01T11:31:28;26.20;99.90
8489;DHT22;4281;45.772;12.852;2022-09-01T11:34:12;26.20;99.90
8489;DHT22;4281;45.772;12.852;2022-09-01T11:36:58;26.30;99.90
8489;DHT22;4281;45.772;12.852;2022-09-01T11:39:35;26.20;99.90
8489;DHT22;4281;45.772;12.852;2022-09-01T11:42:09;26.30;99.90
8489;DHT22;4281;45.772;12.852;2022-09-01T11:44:47;26.40;99.90
8489;DHT22;4281;45.772;12.852;2022-09-01T11:47:18;26.40;99.90
8489;DHT22;4281;45.772;12.852;2022-09-01T11:49:50;26.20;99.90
8489;DHT22;4281;45.772;12.852;2022-09-01T11:52:21;25.90;99.90
8489;DHT22;4281;45.772;12.852;2022-09-01T11:54:50;25.90;99.90
8489;DHT22;4281;45.772;12.852;2022-09-01T11:57:27;25.90;99.90
8489;DHT22;4281;45.772;12.852;2022-09-01T11:59:59;25.90;99.90
8489;DHT22;4281;45.772;12.852;2022-09-01T12:02:30;26.00;99.90
8489;DHT22;4281;45.772;12.852;2022-09-01T12:05:21;26.20;99.90
8489;DHT22;4281;45.772;12.852;2022-09-01T12:07:51;26.30;99.90
8489;DHT22;4281;45.772;12.852;2022-09-01T12:10:23;26.30;99.90
8489;DHT22;4281;45.772;12.852;2022-09-01T12:13:01;26.20;99.90
8489;DHT22;4281;45.772;12.852;2022-09-01T12:15:32;26.20;99.90
8489;DHT22;4281;45.772;12.852;2022-09-01T12:18:12;26.30;99.90
8489;DHT22;4281;45.772;12.852;2022-09-01T12:20:41;26.40;99.90
8489;DHT22;4281;45.772;12.852;2022-09-01T12:23:18;26.40;99.90
8489;DHT22;4281;45.772;12.852;2022-09-01T12:25:47;26.50;99.90
8489;DHT22;4281;45.772;12.852;2022-09-01T12:28:15;26.40;99.90
8489;DHT22;4281;45.772;12.852;2022-09-01T12:30:45;26.40;99.90
8489;DHT22;4281;45.772;12.852;2022-09-01T12:33:14;26.50;99.90
8489;DHT22;4281;45.772;12.852;2022-09-01T12:35:50;26.50;99.90
8489;DHT22;4281;45.772;12.852;2022-09-01T12:38:28;26.80;99.90
8489;DHT22;4281;45.772;12.852;2022-09-01T12:40:57;26.60;99.90
8489;DHT22;4281;45.772;12.852;2022-09-01T12:43:31;26.70;99.90
8489;DHT22;4281;45.772;12.852;2022-09-01T12:46:02;26.70;99.90
8489;DHT22;4281;45.772;12.852;2022-09-01T12:48:32;26.70;99.90
8489;DHT22;4281;45.772;12.852;2022-09-01T12:51:02;26.60;99.90
8489;DHT22;4281;45.772;12.852;2022-09-01T12:53:32;26.70;99.90
8489;DHT22;4281;45.772;12.852;2022-09-01T12:56:23;26.70;99.90
8489;DHT22;4281;45.772;12.852;2022-09-01T12:59:06;26.80;99.90
8489;DHT22;4281;45.772;12.852;2022-09-01T13:01:44;26.80;99.90
8489;DHT22;4281;45.772;12.852;2022-09-01T13:04:24;26.70;99.90
8489;DHT22;4281;45.772;12.852;2022-09-01T13:06:58;26.80;99.90
8489;DHT22;4281;45.772;12.852;2022-09-01T13:09:27;26.80;99.90
8489;DHT22;4281;45.772;12.852;2022-09-01T13:12:09;26.80;99.90
8489;DHT22;4281;45.772;12.852;2022-09-01T13:14:38;26.90;99.90
8489;DHT22;4281;45.772;12.852;2022-09-01T13:17:08;26.60;99.90
8489;DHT22;4281;45.772;12.852;2022-09-01T13:19:40;26.70;99.90
8489;DHT22;4281;45.772;12.852;2022-09-01T13:22:09;26.70;99.90
8489;DHT22;4281;45.772;12.852;2022-09-01T13:24:38;26.80;99.90
8489;DHT22;4281;45.772;12.852;2022-09-01T13:27:07;26.70;99.90
8489;DHT22;4281;45.772;12.852;2022-09-01T13:29:52;26.80;99.90
8489;DHT22;4281;45.772;12.852;2022-09-01T13:32:23;26.80;99.90
8489;DHT22;4281;45.772;12.852;2022-09-01T13:34:52;26.70;99.90
8489;DHT22;4281;45.772;12.852;2022-09-01T13:37:21;26.80;99.90
8489;DHT22;4281;45.772;12.852;2022-09-01T13:39:50;27.00;99.90
8489;DHT22;4281;45.772;12.852;2022-09-01T13:42:18;27.00;99.90
8489;DHT22;4281;45.772;12.852;2022-09-01T13:44:51;27.00;99.90
8489;DHT22;4281;45.772;12.852;2022-09-01T13:47:22;26.90;99.90
8489;DHT22;4281;45.772;12.852;2022-09-01T13:49:56;26.80;99.90
8489;DHT22;4281;45.772;12.852;2022-09-01T13:52:36;26.80;99.90
8489;DHT22;4281;45.772;12.852;2022-09-01T13:55:07;26.50;99.90
8489;DHT22;4281;45.772;12.852;2022-09-01T13:57:37;26.50;99.90
8489;DHT22;4281;45.772;12.852;2022-09-01T14:00:08;26.50;99.90
8489;DHT22;4281;45.772;12.852;2022-09-01T14:02:40;26.40;99.90
8489;DHT22;4281;45.772;12.852;2022-09-01T14:05:16;26.40;99.90
8489;DHT22;4281;45.772;12.852;2022-09-01T14:07:44;26.50;99.90
8489;DHT22;4281;45.772;12.852;2022-09-01T14:10:13;26.40;99.90
8489;DHT22;4281;45.772;12.852;2022-09-01T14:12:42;26.50;99.90
8489;DHT22;4281;45.772;12.852;2022-09-01T14:15:13;26.70;99.90
8489;DHT22;4281;45.772;12.852;2022-09-01T14:17:52;26.70;99.90
8489;DHT22;4281;45.772;12.852;2022-09-01T14:20:24;26.80;99.90
8489;DHT22;4281;45.772;12.852;2022-09-01T14:22:52;26.80;99.90
8489;DHT22;4281;45.772;12.852;2022-09-01T14:25:21;26.80;99.90
8489;DHT22;4281;45.772;12.852;2022-09-01T14:27:50;26.60;99.90
8489;DHT22;4281;45.772;12.852;2022-09-01T14:30:22;26.60;99.90
8489;DHT22;4281;45.772;12.852;2022-09-01T14:32:58;26.60;99.90
8489;DHT22;4281;45.772;12.852;2022-09-01T14:35:28;26.80;99.90
8489;DHT22;4281;45.772;12.852;2022-09-01T14:38:01;26.90;99.90
8489;DHT22;4281;45.772;12.852;2022-09-01T14:40:32;26.80;99.90
8489;DHT22;4281;45.772;12.852;2022-09-01T14:43:03;26.70;99.90
8489;DHT22;4281;45.772;12.852;2022-09-01T14:45:31;26.40;99.90
8489;DHT22;4281;45.772;12.852;2022-09-01T14:48:01;26.20;99.90
8489;DHT22;4281;45.772;12.852;2022-09-01T14:50:30;26.30;99.90
8489;DHT22;4281;45.772;12.852;2022-09-01T14:53:01;26.10;99.90
8489;DHT22;4281;45.772;12.852;2022-09-01T14:55:30;26.00;99.90
8489;DHT22;4281;45.772;12.852;2022-09-01T14:57:59;25.90;99.90
8489;DHT22;4281;45.772;12.852;2022-09-01T15:00:29;25.90;99.90
8489;DHT22;4281;45.772;12.852;2022-09-01T15:02:57;26.10;99.90
8489;DHT22;4281;45.772;12.852;2022-09-01T15:05:28;26.10;99.90
8489;DHT22;4281;45.772;12.852;2022-09-01T15:08:06;26.20;99.90
8489;DHT22;4281;45.772;12.852;2022-09-01T15:10:40;26.30;99.90
8489;DHT22;4281;45.772;12.852;2022-09-01T15:13:08;26.30;99.90
8489;DHT22;4281;45.772;12.852;2022-09-01T15:15:37;26.20;99.90
8489;DHT22;4281;45.772;12.852;2022-09-01T15:18:05;26.20;99.90
8489;DHT22;4281;45.772;12.852;2022-09-01T15:20:40;26.00;99.90
8489;DHT22;4281;45.772;12.852;2022-09-01T15:23:19;25.90;99.90
8489;DHT22;4281;45.772;12.852;2022-09-01T15:25:49;25.80;99.90
8489;DHT22;4281;45.772;12.852;2022-09-01T15:28:18;25.60;99.90
8489;DHT22;4281;45.772;12.852;2022-09-01T15:30:47;25.60;99.90
8489;DHT22;4281;45.772;12.852;2022-09-01T15:33:20;25.60;99.90
8489;DHT22;4281;45.772;12.852;2022-09-01T15:35:50;25.40;99.90
8489;DHT22;4281;45.772;12.852;2022-09-01T15:38:20;25.40;99.90
8489;DHT22;4281;45.772;12.852;2022-09-01T15:40:54;25.50;99.90
8489;DHT22;4281;45.772;12.852;2022-09-01T15:43:25;25.60;99.90
8489;DHT22;4281;45.772;12.852;2022-09-01T15:45:54;25.70;99.90
8489;DHT22;4281;45.772;12.852;2022-09-01T15:48:25;25.80;99.90
8489;DHT22;4281;45.772;12.852;2022-09-01T15:51:06;25.80;99.90
8489;DHT22;4281;45.772;12.852;2022-09-01T15:53:44;25.80;99.90
8489;DHT22;4281;45.772;12.852;2022-09-01T15:56:12;25.70;99.90
8489;DHT22;4281;45.772;12.852;2022-09-01T15:58:40;25.70;99.90
8489;DHT22;4281;45.772;12.852;2022-09-01T16:01:29;25.60;99.90
8489;DHT22;4281;45.772;12.852;2022-09-01T16:03:59;25.70;99.90
8489;DHT22;4281;45.772;12.852;2022-09-01T16:09:12;25.50;99.90
8489;DHT22;4281;45.772;12.852;2022-09-01T16:11:41;25.50;99.90
8489;DHT22;4281;45.772;12.852;2022-09-01T16:14:10;25.30;99.90
8489;DHT22;4281;45.772;12.852;2022-09-01T16:16:46;25.30;99.90
8489;DHT22;4281;45.772;12.852;2022-09-01T16:19:26;25.20;99.90
8489;DHT22;4281;45.772;12.852;2022-09-01T16:22:03;25.40;99.90
8489;DHT22;4281;45.772;12.852;2022-09-01T16:24:40;25.40;99.90
8489;DHT22;4281;45.772;12.852;2022-09-01T16:27:13;25.30;99.90
8489;DHT22;4281;45.772;12.852;2022-09-01T16:29:46;25.20;99.90
8489;DHT22;4281;45.772;12.852;2022-09-01T16:32:15;25.20;99.90
8489;DHT22;4281;45.772;12.852;2022-09-01T16:34:46;25.20;99.90
8489;DHT22;4281;45.772;12.852;2022-09-01T16:37:24;25.20;99.90
8489;DHT22;4281;45.772;12.852;2022-09-01T16:40:02;25.10;99.90
8489;DHT22;4281;45.772;12.852;2022-09-01T16:42:41;25.00;99.90